Time;durP1;ratioP1;P1;durP2;ratioP2;P2;SDS_P1;SDS_P2;PMS_P1;PMS_P2;Temp;Humidity;BMP_temperature;BMP_pressure;BME280_temperature;BME280_humidity;BME280_pressure;Samples;Min_cycle;Max_cycle;Signal;HPM_P1;HPM_P2
2023/07/01 00:00:59;;;;;;;30.45;17.67;;;27.20;99.90;;;;;;4955934;28;20035;-52
2023/07/01 00:03:30;;;;;;;28.70;17.23;;;27.20;99.90;;;;;;4955612;28;20019;-51
2023/07/01 00:06:01;;;;;;;30.67;18.02;;;27.20;99.90;;;;;;4954539;28;20492;-50
2023/07/01 00:08:27;;;;;;;25.20;18.08;;;27.30;99.90;;;;;;4955167;28;20027;-51
2023/07/01 00:10:58;;;;;;;24.55;16.88;;;27.20;99.90;;;;;;4954834;28;20045;-50
2023/07/01 00:13:24;;;;;;;30.90;17.95;;;27.20;99.90;;;;;;4954955;28;20030;-50
2023/07/01 00:15:49;;;;;;;26.90;17.13;;;27.20;99.90;;;;;;4954350;28;20027;-52
2023/07/01 00:18:15;;;;;;;25.52;16.90;;;27.20;99.90;;;;;;4943808;28;20523;-53
2023/07/01 00:20:41;;;;;;;29.77;17.85;;;27.20;99.90;;;;;;4948544;29;20074;-52
2023/07/01 00:23:07;;;;;;;35.05;17.77;;;27.20;99.90;;;;;;4952033;29;20080;-52
2023/07/01 00:25:33;;;;;;;32.65;18.98;;;27.20;99.90;;;;;;4935977;29;20027;-53
2023/07/01 00:27:59;;;;;;;31.38;17.88;;;27.20;99.90;;;;;;4935903;29;20031;-53
2023/07/01 00:30:25;;;;;;;26.25;17.00;;;27.20;99.90;;;;;;4943956;29;20035;-48
2023/07/01 00:32:50;;;;;;;26.15;16.67;;;27.20;99.90;;;;;;4946756;28;20075;-54
2023/07/01 00:35:16;;;;;;;33.05;18.33;;;27.20;99.90;;;;;;4949948;29;20027;-52
2023/07/01 00:37:42;;;;;;;25.20;17.88;;;27.20;99.90;;;;;;4942181;29;20595;-53
2023/07/01 00:40:09;;;;;;;28.75;17.38;;;27.20;99.90;;;;;;4955071;29;20483;-52
2023/07/01 00:42:34;;;;;;;27.57;17.93;;;27.20;99.90;;;;;;4941526;28;20023;-53
2023/07/01 00:45:00;;;;;;;32.58;18.55;;;27.20;99.90;;;;;;4935846;29;20503;-52
2023/07/01 00:47:26;;;;;;;30.38;19.33;;;27.20;99.90;;;;;;4948224;29;20054;-53
2023/07/01 00:49:52;;;;;;;30.00;20.00;;;27.20;99.90;;;;;;4941336;29;20027;-51
2023/07/01 00:52:18;;;;;;;25.33;16.80;;;27.20;99.90;;;;;;4953561;28;20036;-52
2023/07/01 00:54:44;;;;;;;21.58;17.60;;;27.20;99.90;;;;;;4954426;28;20317;-52
2023/07/01 00:57:10;;;;;;;31.10;18.17;;;27.30;99.90;;;;;;4954545;28;20059;-53
2023/07/01 00:59:36;;;;;;;28.90;17.52;;;27.30;99.90;;;;;;4954765;28;20027;-53
2023/07/01 01:02:27;;;;;;;26.08;17.67;;;27.30;99.90;;;;;;4954992;28;20047;-53
2023/07/01 01:05:10;;;;;;;33.17;18.13;;;27.40;99.90;;;;;;4954437;28;20019;-53
2023/07/01 01:08:08;;;;;;;32.13;18.27;;;27.40;99.90;;;;;;4952413;28;20080;-52
2023/07/01 01:10:37;;;;;;;30.73;18.45;;;27.40;99.90;;;;;;4943667;28;20174;-51
2023/07/01 01:13:05;;;;;;;24.83;14.70;;;27.40;99.90;;;;;;4936942;29;20411;-52
2023/07/01 01:15:31;;;;;;;26.88;17.38;;;27.40;99.90;;;;;;4941506;28;20023;-53
2023/07/01 01:18:04;;;;;;;29.20;16.83;;;27.40;99.90;;;;;;4952032;28;20471;-53
2023/07/01 01:20:33;;;;;;;25.67;16.17;;;27.40;99.90;;;;;;4944206;29;20018;-53
2023/07/01 01:23:06;;;;;;;25.42;15.98;;;27.40;99.90;;;;;;4954113;28;20049;-52
2023/07/01 01:25:35;;;;;;;27.52;15.88;;;27.40;99.90;;;;;;4953700;28;20023;-52
2023/07/01 01:28:02;;;;;;;24.35;15.88;;;27.50;99.90;;;;;;4951932;29;20035;-53
2023/07/01 01:30:33;;;;;;;20.60;14.85;;;27.50;99.90;;;;;;4953664;28;20023;-52
2023/07/01 01:32:59;;;;;;;25.08;15.05;;;27.50;99.90;;;;;;4952711;28;20439;-52
2023/07/01 01:35:25;;;;;;;21.83;16.17;;;27.50;99.90;;;;;;4941300;29;20020;-53
2023/07/01 01:37:59;;;;;;;26.75;17.33;;;27.50;99.90;;;;;;4954146;28;20020;-53
2023/07/01 01:40:27;;;;;;;22.63;14.32;;;27.50;99.90;;;;;;4953927;28;20038;-53
2023/07/01 01:43:23;;;;;;;21.30;14.45;;;27.50;99.90;;;;;;4941702;29;20083;-54
2023/07/01 01:45:49;;;;;;;22.13;15.40;;;27.50;99.90;;;;;;4913941;29;20040;-53
2023/07/01 01:48:15;;;;;;;24.58;14.48;;;27.50;99.90;;;;;;4933990;29;20027;-52
2023/07/01 01:50:43;;;;;;;26.25;15.18;;;27.50;99.90;;;;;;4935203;29;20434;-53
2023/07/01 01:53:10;;;;;;;21.92;15.85;;;27.50;99.90;;;;;;4933954;29;20027;-53
2023/07/01 01:55:36;;;;;;;;;;;27.50;99.90;;;;;;4935397;29;20032;-53
2023/07/01 01:58:02;;;;;;;21.90;15.82;;;27.50;99.90;;;;;;4934866;29;19907;-52
2023/07/01 02:00:31;;;;;;;22.10;15.02;;;27.50;99.90;;;;;;4935339;29;20083;-54
2023/07/01 02:02:57;;;;;;;24.65;15.43;;;27.50;99.90;;;;;;4934995;29;20472;-54
2023/07/01 02:05:22;;;;;;;23.17;14.98;;;27.50;99.90;;;;;;4934782;29;20034;-52
2023/07/01 02:07:48;;;;;;;21.80;15.73;;;27.50;99.90;;;;;;4934841;29;20040;-52
2023/07/01 02:10:14;;;;;;;22.15;15.15;;;27.50;99.90;;;;;;4935074;29;20028;-51
2023/07/01 02:12:40;;;;;;;25.35;15.07;;;27.50;99.90;;;;;;4934978;29;20051;-53
2023/07/01 02:15:06;;;;;;;23.65;15.55;;;27.50;99.90;;;;;;4934869;29;20575;-53
2023/07/01 02:17:32;;;;;;;28.92;15.68;;;27.50;99.90;;;;;;4934800;29;20122;-51
2023/07/01 02:19:57;;;;;;;22.10;15.68;;;27.40;99.90;;;;;;4934876;29;20107;-51
2023/07/01 02:22:23;;;;;;;21.05;15.45;;;27.40;99.90;;;;;;4934764;29;20098;-52
2023/07/01 02:24:49;;;;;;;21.00;15.60;;;27.50;99.90;;;;;;4934826;29;20024;-53
2023/07/01 02:27:15;;;;;;;24.95;15.02;;;27.40;99.90;;;;;;4917747;29;20503;-52
2023/07/01 02:29:40;;;;;;;23.20;15.98;;;27.50;99.90;;;;;;4935364;29;20098;-52
2023/07/01 02:32:06;;;;;;;25.52;15.90;;;27.40;99.90;;;;;;4938374;29;20032;-52
2023/07/01 02:34:32;;;;;;;24.60;15.25;;;27.40;99.90;;;;;;4938367;29;20023;-52
2023/07/01 02:36:58;;;;;;;21.65;14.13;;;27.40;99.90;;;;;;4938314;29;20028;-52
2023/07/01 02:39:24;;;;;;;19.70;13.82;;;27.40;99.90;;;;;;4938331;29;20038;-52
2023/07/01 02:41:50;;;;;;;25.95;16.15;;;27.40;99.90;;;;;;4936903;29;20028;-53
2023/07/01 02:44:16;;;;;;;22.80;15.43;;;27.40;99.90;;;;;;4938450;29;20067;-53
2023/07/01 02:46:42;;;;;;;22.92;14.80;;;27.40;99.90;;;;;;4937924;29;20036;-52
2023/07/01 02:49:08;;;;;;;20.80;15.05;;;27.40;99.90;;;;;;4938179;29;20034;-53
2023/07/01 02:51:33;;;;;;;21.80;14.38;;;27.40;99.90;;;;;;4937975;29;20064;-52
2023/07/01 02:53:59;;;;;;;25.15;16.05;;;27.40;99.90;;;;;;4938042;29;20027;-53
2023/07/01 02:56:25;;;;;;;19.60;15.80;;;27.40;99.90;;;;;;4937889;29;20090;-52
2023/07/01 02:58:51;;;;;;;24.58;16.15;;;27.40;99.90;;;;;;4937851;29;20028;-51
2023/07/01 03:01:16;;;;;;;23.88;16.23;;;27.40;99.90;;;;;;4938370;29;20044;-51
2023/07/01 03:03:42;;;;;;;23.88;16.13;;;27.40;99.90;;;;;;4936473;29;20054;-52
2023/07/01 03:06:09;;;;;;;24.73;15.23;;;27.30;99.90;;;;;;4937796;29;20031;-52
2023/07/01 03:08:36;;;;;;;20.33;14.75;;;27.30;99.90;;;;;;4937730;29;20031;-53
2023/07/01 03:11:03;;;;;;;22.95;14.60;;;27.30;99.90;;;;;;4937749;29;20047;-52
2023/07/01 03:13:28;;;;;;;20.80;14.93;;;27.30;99.90;;;;;;4937535;29;20024;-53
2023/07/01 03:15:56;;;;;;;21.70;14.48;;;27.40;99.90;;;;;;4937565;29;20098;-51
2023/07/01 03:18:22;;;;;;;21.40;15.75;;;27.30;99.90;;;;;;4937565;29;20063;-53
2023/07/01 03:20:49;;;;;;;19.80;14.57;;;27.30;99.90;;;;;;4937727;29;20508;-51
2023/07/01 03:23:15;;;;;;;22.50;14.40;;;27.30;99.90;;;;;;4936457;29;20030;-52
2023/07/01 03:25:41;;;;;;;23.15;15.18;;;27.30;99.90;;;;;;4937432;29;20036;-53
2023/07/01 03:28:08;;;;;;;28.08;14.80;;;27.30;99.90;;;;;;4937310;29;20059;-53
2023/07/01 03:30:35;;;;;;;20.17;14.30;;;27.30;99.90;;;;;;4937517;29;20056;-52
2023/07/01 03:33:01;;;;;;;33.47;15.90;;;27.30;99.90;;;;;;4937333;29;20091;-53
2023/07/01 03:35:27;;;;;;;24.85;14.65;;;27.30;99.90;;;;;;4937158;29;20477;-52
2023/07/01 03:37:53;;;;;;;29.10;14.98;;;27.30;99.90;;;;;;4937217;29;20424;-52
2023/07/01 03:40:19;;;;;;;19.73;14.02;;;27.30;99.90;;;;;;4937241;29;20397;-52
2023/07/01 03:42:45;;;;;;;20.80;13.65;;;27.30;99.90;;;;;;4936036;29;20024;-52
2023/07/01 03:45:12;;;;;;;18.42;12.88;;;27.30;99.90;;;;;;4937223;29;20166;-52
2023/07/01 03:47:41;;;;;;;23.25;14.70;;;27.30;99.90;;;;;;4937038;29;20032;-53
2023/07/01 03:50:07;;;;;;;18.90;13.20;;;27.30;99.90;;;;;;4948825;29;20035;-53
2023/07/01 03:52:36;;;;;;;20.70;13.18;;;27.30;99.90;;;;;;4954940;28;20038;-52
2023/07/01 03:55:03;;;;;;;15.90;12.85;;;27.30;99.90;;;;;;4955536;28;20038;-53
2023/07/01 03:57:28;;;;;;;20.33;13.38;;;27.30;99.90;;;;;;4955901;28;20031;-54
2023/07/01 03:59:54;;;;;;;18.63;12.52;;;27.30;99.90;;;;;;4953798;29;20031;-53
2023/07/01 04:02:20;;;;;;;19.38;12.75;;;27.20;99.90;;;;;;4956106;29;20047;-52
2023/07/01 04:04:46;;;;;;;19.92;13.02;;;27.20;99.90;;;;;;4941918;28;20023;-54
2023/07/01 04:07:11;;;;;;;22.27;13.25;;;27.20;99.90;;;;;;4942559;29;20039;-54
2023/07/01 04:09:37;;;;;;;17.77;14.30;;;27.20;99.90;;;;;;4952448;29;20024;-52
2023/07/01 04:12:04;;;;;;;18.73;14.48;;;27.20;99.90;;;;;;4953312;29;20062;-53
2023/07/01 04:14:30;;;;;;;20.02;14.18;;;27.20;99.90;;;;;;4954679;28;20050;-52
2023/07/01 04:16:55;;;;;;;24.25;14.13;;;27.30;99.90;;;;;;4954759;28;20067;-53
2023/07/01 04:19:21;;;;;;;18.85;14.57;;;27.20;99.90;;;;;;4954586;28;20427;-53
2023/07/01 04:21:48;;;;;;;20.83;14.60;;;27.30;99.90;;;;;;4953529;29;20031;-53
2023/07/01 04:24:14;;;;;;;19.27;14.80;;;27.30;99.90;;;;;;4952837;29;20024;-52
2023/07/01 04:26:44;;;;;;;20.05;14.43;;;27.30;99.90;;;;;;4954675;28;20511;-53
2023/07/01 04:29:10;;;;;;;22.35;14.48;;;27.30;99.90;;;;;;4954092;28;20539;-53
2023/07/01 04:31:36;;;;;;;23.75;15.00;;;27.30;99.90;;;;;;4954649;28;20106;-53
2023/07/01 04:34:01;;;;;;;22.55;15.25;;;27.30;99.90;;;;;;4953344;28;20098;-53
2023/07/01 04:36:27;;;;;;;20.25;13.65;;;27.30;99.90;;;;;;4954573;28;20386;-53
2023/07/01 04:38:53;;;;;;;18.10;14.30;;;27.30;99.90;;;;;;4953980;28;20027;-54
2023/07/01 04:41:19;;;;;;;20.17;14.38;;;27.30;99.90;;;;;;4947119;28;20031;-54
2023/07/01 04:43:44;;;;;;;17.75;13.65;;;27.30;99.90;;;;;;4942869;29;20031;-54
2023/07/01 04:46:10;;;;;;;23.63;14.80;;;27.30;99.90;;;;;;4934191;29;20028;-52
2023/07/01 04:48:36;;;;;;;28.02;14.85;;;27.30;99.90;;;;;;4933782;29;20031;-53
2023/07/01 04:51:02;;;;;;;20.73;15.77;;;27.30;99.90;;;;;;4935536;29;20075;-51
2023/07/01 04:53:28;;;;;;;21.63;13.80;;;27.30;99.90;;;;;;4933297;29;20110;-52
2023/07/01 04:55:54;;;;;;;22.40;15.13;;;27.30;99.90;;;;;;4935981;29;20064;-51
2023/07/01 04:58:19;;;;;;;21.65;16.17;;;27.30;99.90;;;;;;4934899;29;20450;-50
2023/07/01 05:00:45;;;;;;;24.77;16.80;;;27.30;99.90;;;;;;4934848;29;20599;-52
2023/07/01 05:03:11;;;;;;;29.85;17.30;;;27.30;99.90;;;;;;4934327;29;20035;-51
2023/07/01 05:05:37;;;;;;;23.13;16.83;;;27.30;99.90;;;;;;4934182;29;20042;-50
2023/07/01 05:08:03;;;;;;;17.38;14.82;;;27.30;99.90;;;;;;4918501;29;20038;-51
2023/07/01 05:10:29;;;;;;;21.00;15.93;;;27.30;99.90;;;;;;4934682;29;20032;-51
2023/07/01 05:12:54;;;;;;;17.40;13.23;;;27.30;99.90;;;;;;4935962;29;20035;-50
2023/07/01 05:15:20;;;;;;;19.92;14.45;;;27.30;99.90;;;;;;4934489;29;20059;-50
2023/07/01 05:17:46;;;;;;;21.33;14.63;;;27.30;99.90;;;;;;4935401;29;20040;-52
2023/07/01 05:20:12;;;;;;;17.70;13.60;;;27.20;99.90;;;;;;4934198;29;20032;-52
2023/07/01 05:22:38;;;;;;;19.73;14.85;;;27.20;99.90;;;;;;4935200;29;20023;-51
2023/07/01 05:25:04;;;;;;;23.25;16.85;;;27.20;99.90;;;;;;4935259;29;20543;-52
2023/07/01 05:27:30;;;;;;;27.98;16.58;;;27.20;99.90;;;;;;4935137;29;20083;-52
2023/07/01 05:29:57;;;;;;;22.13;15.50;;;27.20;99.90;;;;;;4935195;29;20115;-52
2023/07/01 05:32:23;;;;;;;21.23;15.10;;;27.10;99.90;;;;;;4935419;29;20032;-52
2023/07/01 05:34:48;;;;;;;24.90;17.15;;;27.20;99.90;;;;;;4934318;29;20027;-52
2023/07/01 05:37:15;;;;;;;21.80;17.15;;;27.10;99.90;;;;;;4935133;29;20036;-53
2023/07/01 05:39:40;;;;;;;28.63;17.85;;;27.10;99.90;;;;;;4935232;29;20183;-52
2023/07/01 05:42:06;;;;;;;19.25;16.13;;;27.10;99.90;;;;;;4933801;29;20122;-52
2023/07/01 05:44:32;;;;;;;23.55;15.75;;;27.10;99.90;;;;;;4934010;29;20034;-53
2023/07/01 05:46:58;;;;;;;23.58;17.05;;;27.10;99.90;;;;;;4935100;29;20032;-52
2023/07/01 05:49:24;;;;;;;46.90;39.25;;;27.10;99.90;;;;;;4935309;29;20043;-51
2023/07/01 05:51:51;;;;;;;31.88;24.02;;;27.10;99.90;;;;;;4935039;29;20028;-49
2023/07/01 05:54:17;;;;;;;25.63;21.27;;;27.10;99.90;;;;;;4933842;29;20472;-52
2023/07/01 05:56:42;;;;;;;25.45;18.90;;;27.10;99.90;;;;;;4934939;29;20051;-51
2023/07/01 05:59:08;;;;;;;29.75;18.50;;;27.10;99.90;;;;;;4934930;29;20384;-52
2023/07/01 06:01:34;;;;;;;18.95;15.10;;;27.10;99.90;;;;;;4917674;29;20051;-51
2023/07/01 06:04:00;;;;;;;22.33;16.58;;;27.20;99.90;;;;;;4935034;29;20028;-51
2023/07/01 06:06:26;;;;;;;20.33;14.52;;;27.10;99.90;;;;;;4938348;29;20058;-51
2023/07/01 06:08:52;;;;;;;19.40;14.27;;;27.20;99.90;;;;;;4938848;29;20472;-52
2023/07/01 06:11:18;;;;;;;23.38;14.25;;;27.10;99.90;;;;;;4939006;29;20387;-51
2023/07/01 06:13:45;;;;;;;23.15;14.48;;;27.20;99.90;;;;;;4938847;29;20110;-51
2023/07/01 06:16:12;;;;;;;18.75;14.35;;;27.20;99.90;;;;;;4938769;29;20480;-52
2023/07/01 06:18:37;;;;;;;18.38;13.50;;;27.20;99.90;;;;;;4938617;29;20110;-52
2023/07/01 06:21:06;;;;;;;19.80;13.95;;;27.20;99.90;;;;;;4938564;29;20107;-51
2023/07/01 06:23:33;;;;;;;16.15;12.90;;;27.20;99.90;;;;;;4937231;29;20083;-52
2023/07/01 06:25:59;;;;;;;15.63;12.52;;;27.20;99.90;;;;;;4938507;29;20062;-51
2023/07/01 06:28:25;;;;;;;17.83;11.85;;;27.20;99.90;;;;;;4938639;29;20036;-52
2023/07/01 06:30:51;;;;;;;16.83;13.32;;;27.20;99.90;;;;;;4938396;29;20086;-54
2023/07/01 06:33:16;;;;;;;18.10;11.65;;;27.20;99.90;;;;;;4938354;29;20035;-54
2023/07/01 06:35:43;;;;;;;20.52;12.55;;;27.30;99.90;;;;;;4938842;29;20047;-53
2023/07/01 06:38:09;;;;;;;35.38;28.05;;;27.30;99.90;;;;;;4938097;29;20051;-54
2023/07/01 06:40:35;;;;;;;30.83;18.33;;;27.30;99.90;;;;;;4936876;29;20023;-54
2023/07/01 06:43:02;;;;;;;18.83;15.15;;;27.30;99.90;;;;;;4938158;29;20174;-53
2023/07/01 06:45:29;;;;;;;17.65;11.52;;;27.30;99.90;;;;;;4938280;29;20023;-53
2023/07/01 06:47:55;;;;;;;17.10;10.60;;;27.40;99.90;;;;;;4937912;29;20489;-54
2023/07/01 06:50:20;;;;;;;15.10;11.32;;;27.40;99.90;;;;;;4937930;29;20028;-54
2023/07/01 06:52:46;;;;;;;13.90;10.00;;;27.30;99.90;;;;;;4937879;29;20039;-54
2023/07/01 06:55:15;;;;;;;15.38;10.43;;;27.40;99.90;;;;;;4937955;29;20471;-54
2023/07/01 06:57:41;;;;;;;19.75;10.80;;;27.40;99.90;;;;;;4937781;29;20027;-55
2023/07/01 07:00:09;;;;;;;14.47;10.17;;;27.40;99.90;;;;;;4945020;29;20384;-55
2023/07/01 07:02:35;;;;;;;19.60;10.80;;;27.40;99.90;;;;;;4956735;28;20043;-54
2023/07/01 07:05:03;;;;;;;15.05;9.60;;;27.40;99.90;;;;;;4956777;28;20108;-52
2023/07/01 07:07:29;;;;;;;18.80;10.77;;;27.50;99.90;;;;;;4956996;28;20078;-53
2023/07/01 07:09:54;;;;;;;14.52;9.55;;;27.50;99.90;;;;;;4956743;29;20023;-54
2023/07/01 07:12:20;;;;;;;16.88;9.32;;;27.50;99.90;;;;;;4956617;29;20491;-54
2023/07/01 07:14:46;;;;;;;14.85;8.48;;;27.50;99.90;;;;;;4956312;29;20396;-54
2023/07/01 07:17:12;;;;;;;14.38;8.52;;;27.50;99.90;;;;;;4956485;28;20098;-55
2023/07/01 07:19:38;;;;;;;14.68;8.18;;;27.60;99.90;;;;;;4955322;29;20023;-54
2023/07/01 07:22:04;;;;;;;13.13;8.80;;;27.60;99.90;;;;;;4956583;28;20058;-55
2023/07/01 07:24:30;;;;;;;14.68;8.93;;;27.60;99.90;;;;;;4956820;28;20023;-54
2023/07/01 07:26:59;;;;;;;13.63;9.07;;;27.60;99.90;;;;;;4956207;28;20455;-54
2023/07/01 07:29:25;;;;;;;16.40;8.88;;;27.60;99.90;;;;;;4956359;28;20027;-55
2023/07/01 07:31:51;;;;;;;12.52;9.00;;;27.60;99.90;;;;;;4956426;28;20361;-54
2023/07/01 07:34:16;;;;;;;12.80;8.77;;;27.70;99.90;;;;;;4956049;28;20480;-52
2023/07/01 07:36:43;;;;;;;16.08;9.07;;;27.70;99.90;;;;;;4956207;29;20125;-53
2023/07/01 07:39:12;;;;;;;20.58;9.45;;;27.70;99.90;;;;;;4956245;28;20031;-54
2023/07/01 07:41:39;;;;;;;17.05;10.23;;;27.80;99.90;;;;;;4953353;28;20074;-53
2023/07/01 07:44:05;;;;;;;15.45;9.80;;;27.80;99.90;;;;;;4935545;28;20028;-53
2023/07/01 07:46:32;;;;;;;17.58;10.63;;;27.80;99.90;;;;;;4934938;29;20038;-53
2023/07/01 07:48:57;;;;;;;14.68;10.07;;;27.80;99.90;;;;;;4936045;29;20026;-53
2023/07/01 07:51:23;;;;;;;15.80;9.57;;;27.90;99.90;;;;;;4954320;28;20039;-53
2023/07/01 07:53:49;;;;;;;15.98;9.00;;;27.90;99.90;;;;;;4955826;29;20053;-53
2023/07/01 07:56:15;;;;;;;16.38;8.20;;;27.90;99.90;;;;;;4952881;29;20094;-52
2023/07/01 07:58:40;;;;;;;17.35;11.07;;;27.90;99.90;;;;;;4955930;28;20074;-52
2023/07/01 08:01:06;;;;;;;22.65;10.68;;;27.90;99.90;;;;;;4953416;28;20051;-53
2023/07/01 08:03:32;;;;;;;14.48;9.63;;;27.90;99.90;;;;;;4956050;28;20032;-53
2023/07/01 08:05:58;;;;;;;19.02;11.00;;;28.00;99.90;;;;;;4953519;28;20135;-54
2023/07/01 08:08:24;;;;;;;16.52;10.38;;;28.00;99.90;;;;;;4955741;28;20467;-55
2023/07/01 08:10:50;;;;;;;15.32;11.40;;;28.00;99.90;;;;;;4953069;28;20039;-54
2023/07/01 08:13:16;;;;;;;21.02;11.23;;;28.00;99.90;;;;;;4953485;29;20431;-54
2023/07/01 08:15:44;;;;;;;20.23;9.32;;;28.00;99.90;;;;;;4932404;29;20139;-54
2023/07/01 08:18:09;;;;;;;14.27;9.40;;;28.10;99.90;;;;;;4933961;29;20122;-54
2023/07/01 08:20:35;;;;;;;15.52;9.05;;;28.10;99.90;;;;;;4935203;29;20075;-55
2023/07/01 08:23:01;;;;;;;15.40;9.13;;;28.10;99.90;;;;;;4936528;29;20097;-55
2023/07/01 08:25:27;;;;;;;18.13;9.98;;;28.20;99.90;;;;;;4935729;29;20027;-54
2023/07/01 08:27:53;;;;;;;18.52;9.90;;;28.20;99.90;;;;;;4935172;29;20094;-55
2023/07/01 08:30:21;;;;;;;27.60;9.07;;;28.20;99.90;;;;;;4936142;29;20035;-54
2023/07/01 08:32:47;;;;;;;15.45;10.35;;;28.30;99.90;;;;;;4936321;29;20028;-55
2023/07/01 08:35:13;;;;;;;17.90;8.95;;;28.30;99.90;;;;;;4934833;29;20083;-54
2023/07/01 08:37:38;;;;;;;16.70;8.90;;;28.30;99.90;;;;;;4936263;29;20027;-54
2023/07/01 08:40:06;;;;;;;19.30;9.90;;;28.30;99.90;;;;;;4936158;29;20512;-53
2023/07/01 08:42:50;;;;;;;14.00;9.00;;;28.30;99.90;;;;;;4936037;29;20020;-52
2023/07/01 08:45:26;;;;;;;14.25;8.93;;;28.30;99.90;;;;;;4935873;29;20051;-54
2023/07/01 08:48:00;;;;;;;23.45;11.73;;;28.30;99.90;;;;;;4935827;29;20059;-53
2023/07/01 08:50:45;;;;;;;15.30;9.40;;;28.40;99.90;;;;;;4935809;29;20212;-54
2023/07/01 08:53:13;;;;;;;15.25;9.82;;;28.40;99.90;;;;;;4934381;29;20032;-54
2023/07/01 08:55:39;;;;;;;16.67;9.38;;;28.40;99.90;;;;;;4934580;29;20035;-54
2023/07/01 08:58:05;;;;;;;16.80;9.80;;;28.50;99.90;;;;;;4935898;29;20033;-54
2023/07/01 09:00:31;;;;;;;16.42;9.05;;;28.50;99.90;;;;;;4934253;29;20027;-53
2023/07/01 09:02:58;;;;;;;17.33;9.75;;;28.50;99.90;;;;;;4935507;29;20050;-53
2023/07/01 09:05:24;;;;;;;17.27;9.52;;;28.50;99.90;;;;;;4935390;29;20062;-55
2023/07/01 09:07:50;;;;;;;15.30;9.70;;;28.50;99.90;;;;;;4935389;29;20044;-53
2023/07/01 09:10:16;;;;;;;13.95;9.50;;;28.50;99.90;;;;;;4935394;29;20028;-53
2023/07/01 09:12:41;;;;;;;13.48;9.20;;;28.50;99.90;;;;;;4935362;29;20023;-54
2023/07/01 09:15:08;;;;;;;17.05;8.48;;;28.50;99.90;;;;;;4935604;29;20429;-53
2023/07/01 09:17:36;;;;;;;16.65;10.10;;;28.50;99.90;;;;;;4934128;29;20480;-53
2023/07/01 09:20:05;;;;;;;17.02;8.93;;;28.50;99.90;;;;;;4935462;29;20485;-53
2023/07/01 09:22:31;;;;;;;16.13;8.45;;;28.50;99.90;;;;;;4935238;29;20024;-53
2023/07/01 09:24:57;;;;;;;13.83;7.60;;;28.50;99.90;;;;;;4935145;29;20480;-53
2023/07/01 09:27:24;;;;;;;16.70;8.95;;;28.60;99.90;;;;;;4935183;29;20036;-52
2023/07/01 09:29:52;;;;;;;15.77;8.18;;;28.60;99.90;;;;;;4935210;29;20019;-52
2023/07/01 09:32:28;;;;;;;14.43;7.82;;;28.60;99.90;;;;;;4935095;29;20028;-52
2023/07/01 09:34:57;;;;;;;15.15;9.57;;;28.50;99.90;;;;;;4935188;29;20027;-52
2023/07/01 09:37:24;;;;;;;12.52;8.25;;;28.50;99.90;;;;;;4935052;29;20082;-52
2023/07/01 09:39:50;;;;;;;13.35;8.88;;;28.50;99.90;;;;;;4934354;29;20019;-52
2023/07/01 09:42:19;;;;;;;14.95;9.57;;;28.50;99.90;;;;;;4950467;29;20034;-52
2023/07/01 09:45:09;;;;;;;14.02;8.25;;;28.50;99.90;;;;;;4954228;28;20115;-52
2023/07/01 09:47:35;;;;;;;17.63;8.98;;;28.60;99.90;;;;;;4954136;29;20050;-51
2023/07/01 09:50:02;;;;;;;13.65;8.18;;;28.60;99.90;;;;;;4953831;29;20057;-52
2023/07/01 09:52:31;;;;;;;16.85;8.60;;;28.60;99.90;;;;;;4949984;28;20453;-50
2023/07/01 09:55:00;;;;;;;16.63;8.63;;;28.60;99.90;;;;;;4947693;29;20484;-50
2023/07/01 09:57:26;;;;;;;13.30;7.70;;;28.60;99.90;;;;;;4952835;29;20555;-50
2023/07/01 09:59:52;;;;;;;14.07;8.23;;;28.60;99.90;;;;;;4952645;29;20054;-51
2023/07/01 10:02:19;;;;;;;15.90;7.85;;;28.60;99.90;;;;;;4952513;29;20059;-52
2023/07/01 10:04:45;;;;;;;18.90;7.55;;;28.60;99.90;;;;;;4954000;29;20023;-51
2023/07/01 10:07:10;;;;;;;15.45;7.30;;;28.60;99.90;;;;;;4949732;29;20102;-51
2023/07/01 10:09:45;;;;;;;21.50;8.50;;;28.60;99.90;;;;;;4937270;29;20071;-49
2023/07/01 10:12:15;;;;;;;10.90;7.65;;;28.60;99.90;;;;;;4934707;29;20135;-49
2023/07/01 10:14:43;;;;;;;19.40;8.60;;;28.60;99.90;;;;;;4948001;29;20028;-51
2023/07/01 10:17:09;;;;;;;;;;;28.60;99.90;;;;;;4942538;29;20507;-52
2023/07/01 10:19:35;;;;;;;16.13;7.47;;;28.60;99.90;;;;;;4939955;29;19911;-54
2023/07/01 10:22:25;;;;;;;17.80;8.25;;;28.60;99.90;;;;;;4939173;29;20031;-54
2023/07/01 10:25:06;;;;;;;16.42;7.80;;;28.60;99.90;;;;;;4949465;29;20023;-53
2023/07/01 10:27:44;;;;;;;15.88;7.60;;;28.60;99.90;;;;;;4942655;29;20027;-53
2023/07/01 10:30:13;;;;;;;14.20;8.07;;;28.60;99.90;;;;;;4942763;29;20020;-53
2023/07/01 10:32:40;;;;;;;15.30;7.20;;;28.60;99.90;;;;;;4950766;28;20067;-50
2023/07/01 10:35:07;;;;;;;13.93;7.35;;;28.60;99.90;;;;;;4952536;29;20109;-55
2023/07/01 10:37:33;;;;;;;16.17;8.05;;;28.60;99.90;;;;;;4952507;29;20035;-55
2023/07/01 10:40:24;;;;;;;13.88;7.57;;;28.60;99.90;;;;;;4950651;29;20031;-56
2023/07/01 10:42:49;;;;;;;13.75;7.97;;;28.60;99.90;;;;;;4937437;29;20483;-53
2023/07/01 10:45:15;;;;;;;12.63;7.88;;;28.60;99.90;;;;;;4937214;29;20031;-54
2023/07/01 10:47:43;;;;;;;11.70;7.13;;;28.60;99.90;;;;;;4953479;29;20484;-56
2023/07/01 10:50:11;;;;;;;14.20;7.20;;;28.60;99.90;;;;;;4938039;28;20063;-56
2023/07/01 10:52:55;;;;;;;16.95;8.20;;;28.60;99.90;;;;;;4936968;29;20099;-55
2023/07/01 10:55:43;;;;;;;16.02;7.53;;;28.50;99.90;;;;;;4937884;29;20023;-55
2023/07/01 10:58:28;;;;;;;14.57;7.78;;;28.60;99.90;;;;;;4936691;29;20083;-56
2023/07/01 11:00:56;;;;;;;13.77;7.95;;;28.60;99.90;;;;;;4937483;29;20044;-57
2023/07/01 11:03:36;;;;;;;;;;;28.60;99.90;;;;;;4941579;29;20028;-52
2023/07/01 11:06:06;;;;;;;11.40;7.18;;;28.70;99.90;;;;;;4946526;29;19907;-55
2023/07/01 11:08:34;;;;;;;13.93;8.07;;;28.70;99.90;;;;;;4945544;29;20497;-54
2023/07/01 11:11:00;;;;;;;14.77;7.85;;;28.70;99.90;;;;;;4947248;29;20377;-54
2023/07/01 11:13:26;;;;;;;11.60;7.40;;;28.70;99.90;;;;;;4946980;29;20031;-55
2023/07/01 11:16:09;;;;;;;11.65;7.30;;;28.80;99.90;;;;;;4945645;29;20127;-54
2023/07/01 11:18:49;;;;;;;15.65;8.45;;;28.80;99.90;;;;;;4944991;29;20066;-55
2023/07/01 11:21:22;;;;;;;23.55;10.48;;;28.80;99.90;;;;;;4942197;29;20050;-55
2023/07/01 11:24:07;;;;;;;17.65;8.10;;;28.80;99.90;;;;;;4944113;29;20037;-52
2023/07/01 11:26:40;;;;;;;15.38;8.25;;;28.80;99.90;;;;;;4962008;28;20031;-53
2023/07/01 11:29:18;;;;;;;12.52;7.38;;;28.80;99.90;;;;;;4947838;28;20031;-53
2023/07/01 11:31:45;;;;;;;13.05;8.23;;;28.90;99.90;;;;;;4951503;28;20024;-54
2023/07/01 11:34:13;;;;;;;13.80;7.53;;;28.90;99.90;;;;;;4948990;28;20069;-57
2023/07/01 11:36:44;;;;;;;14.25;9.02;;;28.90;99.90;;;;;;4956599;28;20036;-56
2023/07/01 11:39:13;;;;;;;13.43;8.40;;;28.90;99.90;;;;;;4955702;28;20100;-55
2023/07/01 11:41:41;;;;;;;14.70;8.65;;;28.90;99.90;;;;;;4949248;28;20400;-54
2023/07/01 11:44:09;;;;;;;19.55;8.07;;;28.90;99.90;;;;;;4953465;28;20039;-57
2023/07/01 11:46:38;;;;;;;17.52;9.18;;;28.90;99.90;;;;;;4952343;28;20075;-54
2023/07/01 11:49:17;;;;;;;13.40;8.02;;;28.90;99.90;;;;;;4957786;28;20419;-55
2023/07/01 11:51:47;;;;;;;13.48;7.85;;;28.90;99.90;;;;;;4959220;28;20027;-54
2023/07/01 11:54:14;;;;;;;17.45;9.63;;;28.90;99.90;;;;;;4947805;28;20384;-55
2023/07/01 11:56:40;;;;;;;16.83;9.40;;;28.80;99.90;;;;;;4956444;28;20428;-56
2023/07/01 11:59:06;;;;;;;16.63;9.02;;;28.80;99.90;;;;;;4945900;28;20279;-54
2023/07/01 12:01:35;;;;;;;15.70;11.52;;;28.80;99.90;;;;;;4949583;28;20385;-56
2023/07/01 12:04:12;;;;;;;21.75;14.18;;;28.80;99.90;;;;;;4956404;28;20026;-55
2023/07/01 12:06:38;;;;;;;12.35;8.75;;;28.80;99.90;;;;;;4952921;28;20466;-54
2023/07/01 12:09:07;;;;;;;16.48;8.73;;;28.80;99.90;;;;;;4953241;28;20126;-56
2023/07/01 12:11:45;;;;;;;17.15;8.82;;;28.80;99.90;;;;;;4950055;28;20107;-55
2023/07/01 12:14:18;;;;;;;14.30;9.15;;;28.80;99.90;;;;;;4949568;28;20039;-55
2023/07/01 12:16:47;;;;;;;14.02;8.88;;;28.80;99.90;;;;;;4954876;28;20023;-55
2023/07/01 12:19:14;;;;;;;18.42;9.70;;;28.90;99.90;;;;;;4954870;28;20467;-55
2023/07/01 12:21:40;;;;;;;12.27;10.07;;;28.90;99.90;;;;;;4947504;28;20085;-54
2023/07/01 12:24:18;;;;;;;15.63;11.18;;;28.90;99.90;;;;;;4943567;28;20062;-55
2023/07/01 12:26:44;;;;;;;14.88;8.68;;;28.90;99.90;;;;;;4946544;28;20125;-54
2023/07/01 12:29:11;;;;;;;14.95;8.65;;;28.90;99.90;;;;;;4951742;28;20035;-54
2023/07/01 12:31:36;;;;;;;18.40;10.02;;;28.90;99.90;;;;;;4954073;28;20461;-56
2023/07/01 12:34:02;;;;;;;19.15;9.75;;;28.90;99.90;;;;;;4971702;28;20035;-54